Time;durP1;ratioP1;P1;durP2;ratioP2;P2;SDS_P1;SDS_P2;PMS_P1;PMS_P2;Temp;Humidity;BMP_temperature;BMP_pressure;BME280_temperature;BME280_humidity;BME280_pressure;Samples;Min_cycle;Max_cycle;Signal;HPM_P1;HPM_P2
2021/01/27 00:00:36;;;;;;;11.03;7.30;;;3.60;99.90;;;-146.47;100.00;66290.13;5043300;28;20231;-79
2021/01/27 00:03:21;;;;;;;11.93;8.10;;;3.60;99.90;;;-146.47;100.00;66290.13;5043040;28;20207;-79
2021/01/27 00:06:08;;;;;;;13.33;7.90;;;3.60;99.90;;;-146.47;100.00;66290.13;5042100;28;20574;-81
2021/01/27 00:08:53;;;;;;;11.60;7.30;;;3.60;99.90;;;-146.47;100.00;66290.13;5042373;28;20262;-80
2021/01/27 00:11:38;;;;;;;11.70;7.03;;;3.60;99.90;;;-146.47;100.00;66290.13;5043289;28;20249;-80
2021/01/27 00:14:25;;;;;;;13.63;7.47;;;3.60;99.90;;;-146.47;100.00;66290.13;5043729;28;20276;-79
2021/01/27 00:17:10;;;;;;;13.93;7.67;;;3.60;99.90;;;-146.47;100.00;66290.13;5043796;28;20195;-80
2021/01/27 00:19:55;;;;;;;12.63;7.27;;;3.50;99.90;;;-146.47;100.00;66290.13;5037571;28;20292;-81
2021/01/27 00:22:41;;;;;;;12.17;6.97;;;3.50;99.90;;;-146.47;100.00;66290.13;5036979;28;20199;-79
2021/01/27 00:25:31;;;;;;;9.20;6.50;;;3.50;99.90;;;-146.47;100.00;66290.13;5036540;28;20199;-81
2021/01/27 00:28:16;;;;;;;11.50;6.87;;;3.50;99.90;;;-146.47;100.00;66290.13;5041728;28;20243;-80
2021/01/27 00:31:01;;;;;;;8.83;5.43;;;3.50;99.90;;;-146.47;100.00;66290.13;5035060;28;20215;-79
2021/01/27 00:33:46;;;;;;;9.83;6.60;;;3.50;99.90;;;-146.47;100.00;66290.13;5042299;28;20261;-79
2021/01/27 00:36:32;;;;;;;11.60;7.23;;;3.50;99.90;;;-146.47;100.00;66290.13;5038673;28;20202;-79
2021/01/27 00:39:19;;;;;;;9.20;6.57;;;3.50;99.90;;;-146.47;100.00;66290.13;5039991;28;20222;-80
2021/01/27 00:42:04;;;;;;;9.70;6.53;;;3.50;99.90;;;-146.47;100.00;66290.13;5041554;28;20203;-78
2021/01/27 00:44:49;;;;;;;10.47;6.73;;;3.50;99.90;;;-146.47;100.00;66290.13;5035789;28;20203;-80
2021/01/27 00:47:35;;;;;;;10.77;6.57;;;3.50;99.90;;;-146.47;100.00;66290.13;5037737;28;20231;-80
2021/01/27 00:50:20;;;;;;;10.97;6.67;;;3.40;99.90;;;-146.47;100.00;66290.13;5037422;28;20215;-79
2021/01/27 00:53:06;;;;;;;12.03;7.13;;;3.40;99.90;;;-146.47;100.00;66290.13;5041689;28;20211;-79
2021/01/27 00:55:52;;;;;;;10.27;7.23;;;3.40;99.90;;;-146.47;100.00;66290.13;5040833;28;20211;-79
2021/01/27 00:58:37;;;;;;;13.53;6.27;;;3.40;99.90;;;-146.47;100.00;66290.13;5038432;28;20292;-79
2021/01/27 01:01:22;;;;;;;9.97;6.63;;;3.40;99.90;;;-146.47;100.00;66290.13;5040235;28;20204;-80
2021/01/27 01:04:07;;;;;;;9.07;5.37;;;3.40;99.90;;;-146.47;100.00;66290.13;5040946;28;20210;-79
2021/01/27 01:06:52;;;;;;;12.90;6.67;;;3.40;99.90;;;-146.47;100.00;66290.13;5028950;28;20283;-79
2021/01/27 01:09:38;;;;;;;11.00;6.83;;;3.40;99.90;;;-146.47;100.00;66290.13;5039650;28;20450;-80
2021/01/27 01:12:24;;;;;;;8.17;5.80;;;3.40;99.90;;;-146.47;100.00;66290.13;5032082;28;20274;-79
2021/01/27 01:15:12;;;;;;;12.70;7.20;;;3.40;99.90;;;-146.47;100.00;66290.13;5039180;28;20222;-80
2021/01/27 01:17:58;;;;;;;10.90;6.10;;;3.40;99.90;;;-146.47;100.00;66290.13;5047594;28;20234;-79
2021/01/27 01:20:43;;;;;;;10.90;6.23;;;3.40;99.90;;;-146.47;100.00;66290.13;5042776;28;20684;-78
2021/01/27 01:23:28;;;;;;;10.70;6.60;;;3.40;99.90;;;-146.47;100.00;66290.13;5043051;28;20204;-80
2021/01/27 01:26:14;;;;;;;8.53;4.90;;;3.40;99.90;;;-146.47;100.00;66290.13;5037282;28;20256;-79
2021/01/27 01:28:59;;;;;;;9.97;6.47;;;3.40;99.90;;;-146.47;100.00;66290.13;5041637;28;20307;-79
2021/01/27 01:31:45;;;;;;;10.37;6.10;;;3.40;99.90;;;-146.47;100.00;66290.13;5029664;28;20250;-79
2021/01/27 01:34:30;;;;;;;10.73;6.40;;;3.50;99.90;;;-146.47;100.00;66290.13;5038683;28;20742;-80
2021/01/27 01:37:15;;;;;;;11.27;6.10;;;3.50;99.90;;;-146.47;100.00;66290.13;5040345;28;20204;-79
2021/01/27 01:40:00;;;;;;;9.60;6.47;;;3.50;99.90;;;-146.47;100.00;66290.13;5041804;28;20235;-78
2021/01/27 01:42:46;;;;;;;9.27;5.93;;;3.50;99.90;;;-146.47;100.00;66290.13;5045611;28;20288;-79
2021/01/27 01:45:36;;;;;;;11.13;6.30;;;3.50;99.90;;;-146.47;100.00;66290.13;5045483;28;20721;-80
2021/01/27 01:48:29;;;;;;;9.33;5.33;;;3.50;99.90;;;-146.47;100.00;66290.13;5041941;28;20251;-78
2021/01/27 01:51:23;;;;;;;6.53;4.57;;;3.50;99.90;;;-146.47;100.00;66290.13;5041028;28;20218;-79
2021/01/27 01:54:17;;;;;;;9.57;6.43;;;3.50;99.90;;;-146.47;100.00;66290.13;5042451;28;20226;-80
2021/01/27 01:57:11;;;;;;;10.70;6.80;;;3.50;99.90;;;-146.47;100.00;66290.13;5045179;28;20211;-79
2021/01/27 02:00:01;;;;;;;10.37;5.73;;;3.50;99.90;;;-146.47;100.00;66290.13;5040699;28;20238;-80
2021/01/27 02:02:47;;;;;;;9.07;5.83;;;3.50;99.90;;;-146.47;100.00;66290.13;5043865;28;20217;-79
2021/01/27 02:05:33;;;;;;;11.30;6.00;;;3.50;99.90;;;-146.47;100.00;66290.13;5038011;28;20253;-80
2021/01/27 02:08:19;;;;;;;9.93;6.37;;;3.50;99.90;;;-146.47;100.00;66290.13;5047308;28;20227;-78
2021/01/27 02:11:05;;;;;;;8.83;5.67;;;3.50;99.90;;;-146.47;100.00;66290.13;5037638;28;20207;-79
2021/01/27 02:14:07;;;;;;;8.23;5.20;;;3.50;99.90;;;-146.47;100.00;66290.13;5041044;28;20207;-81
2021/01/27 02:17:01;;;;;;;8.73;5.27;;;3.60;99.90;;;-146.47;100.00;66290.13;5040251;28;20206;-79
2021/01/27 02:20:42;;;;;;;8.73;5.50;;;3.60;99.90;;;-146.47;100.00;66290.13;5038694;28;20291;-79
2021/01/27 02:24:29;;;;;;;10.53;5.70;;;3.60;99.90;;;-146.47;100.00;66290.13;5041878;28;20199;-80
2021/01/27 02:27:24;;;;;;;10.20;5.73;;;3.50;99.90;;;-146.47;100.00;66290.13;5058422;28;20195;-78
2021/01/27 02:30:25;;;;;;;11.10;6.27;;;3.50;99.90;;;-146.47;100.00;66290.13;5046956;28;20224;-79
2021/01/27 02:34:19;;;;;;;8.43;5.67;;;3.50;99.90;;;-146.47;100.00;66290.13;5043137;28;20319;-80
2021/01/27 02:37:11;;;;;;;7.03;5.40;;;3.40;99.90;;;-146.47;100.00;66290.13;5007671;28;20727;-79
2021/01/27 02:40:05;;;;;;;8.07;5.03;;;3.40;99.90;;;-146.47;100.00;66290.13;5045178;28;20247;-79
2021/01/27 02:43:04;;;;;;;8.47;5.30;;;3.50;99.90;;;-146.47;100.00;66290.13;5044013;28;20207;-80
2021/01/27 02:45:59;;;;;;;8.30;4.67;;;3.40;99.90;;;-146.47;100.00;66290.13;5044812;28;20199;-80
2021/01/27 02:48:53;;;;;;;8.07;5.27;;;3.40;99.90;;;-146.47;100.00;66290.13;5043677;28;20742;-78
2021/01/27 02:51:50;;;;;;;8.70;4.07;;;3.40;99.90;;;-146.47;100.00;66290.13;5034781;28;20737;-80
2021/01/27 02:54:46;;;;;;;7.90;4.53;;;3.40;99.90;;;-146.47;100.00;66290.13;5037351;28;20235;-80
2021/01/27 02:57:37;;;;;;;7.00;4.63;;;3.30;99.90;;;-146.47;100.00;66290.13;5036377;28;20250;-78
2021/01/27 03:00:29;;;;;;;8.20;4.50;;;3.30;99.90;;;-146.47;100.00;66290.13;5041954;28;20308;-80
2021/01/27 03:03:22;;;;;;;5.27;4.13;;;3.30;99.90;;;-146.47;100.00;66290.13;5033488;28;20215;-79
2021/01/27 03:06:13;;;;;;;7.83;4.13;;;3.30;99.90;;;-146.47;100.00;66290.13;5027387;28;20199;-79
2021/01/27 03:09:04;;;;;;;6.03;3.73;;;3.30;99.90;;;-146.47;100.00;66290.13;5035179;28;20227;-79
2021/01/27 03:11:50;;;;;;;5.33;4.20;;;3.40;99.90;;;-146.47;100.00;66290.13;5033176;28;20226;-79
2021/01/27 03:14:35;;;;;;;7.43;4.10;;;3.40;99.90;;;-146.47;100.00;66290.13;5039306;28;20238;-80
2021/01/27 03:17:25;;;;;;;7.73;4.20;;;3.40;99.90;;;-146.47;100.00;66290.13;5029596;28;20254;-77
2021/01/27 03:20:17;;;;;;;6.23;4.20;;;3.40;99.90;;;-146.47;100.00;66290.13;5039063;28;20223;-79
2021/01/27 03:23:13;;;;;;;6.17;4.23;;;3.40;99.90;;;-146.47;100.00;66290.13;5036327;28;20191;-78
2021/01/27 03:26:12;;;;;;;4.53;3.70;;;3.40;99.90;;;-146.47;100.00;66290.13;5037662;28;20247;-79
2021/01/27 03:29:05;;;;;;;5.10;3.63;;;3.40;99.90;;;-146.47;100.00;66290.13;5028248;28;20757;-79
2021/01/27 03:31:54;;;;;;;5.87;3.50;;;3.40;99.90;;;-146.47;100.00;66290.13;5036962;28;20280;-80
2021/01/27 03:34:46;;;;;;;6.20;4.33;;;3.40;99.90;;;-146.47;100.00;66290.13;5040889;28;20810;-78
2021/01/27 03:37:38;;;;;;;4.27;3.33;;;3.40;99.90;;;-146.47;100.00;66290.13;5033930;28;20234;-79
2021/01/27 03:40:25;;;;;;;3.93;3.53;;;3.40;99.90;;;-146.47;100.00;66290.13;5041457;28;20643;-81
2021/01/27 03:43:20;;;;;;;6.20;4.03;;;3.40;99.90;;;-146.47;100.00;66290.13;5035764;28;20231;-79
2021/01/27 03:46:17;;;;;;;5.97;3.70;;;3.40;99.90;;;-146.47;100.00;66290.13;5034217;28;21658;-79
2021/01/27 03:49:09;;;;;;;4.57;3.90;;;3.40;99.90;;;-146.47;100.00;66290.13;5038959;28;20711;-81
2021/01/27 03:52:02;;;;;;;4.70;3.97;;;3.40;99.90;;;-146.47;100.00;66290.13;5036684;28;20203;-78
2021/01/27 03:55:10;;;;;;;5.30;4.33;;;3.40;99.90;;;-146.47;100.00;66290.13;5042181;28;20199;-80
2021/01/27 03:58:04;;;;;;;5.53;4.27;;;3.40;99.90;;;-146.47;100.00;66290.13;5030608;28;20283;-79
2021/01/27 04:00:50;;;;;;;7.00;4.00;;;3.40;99.90;;;-146.47;100.00;66290.13;5037192;28;20228;-79
2021/01/27 04:03:37;;;;;;;5.03;3.93;;;3.30;99.90;;;-146.47;100.00;66290.13;5027236;28;20204;-78
2021/01/27 04:06:23;;;;;;;9.90;3.83;;;3.50;99.90;;;-146.47;100.00;66290.13;5035823;28;20242;-79
2021/01/27 04:09:08;;;;;;;6.57;4.00;;;3.30;99.90;;;-146.47;100.00;66290.13;5038914;28;20219;-80
2021/01/27 04:11:54;;;;;;;6.60;4.20;;;3.30;99.90;;;-146.47;100.00;66290.13;5033679;28;20215;-79
2021/01/27 04:14:39;;;;;;;6.03;4.03;;;3.30;99.90;;;-146.47;100.00;66290.13;5035569;28;20239;-80
2021/01/27 04:17:30;;;;;;;7.07;4.23;;;3.30;99.90;;;-146.47;100.00;66290.13;5041642;28;20235;-80
2021/01/27 04:20:17;;;;;;;6.30;4.43;;;3.30;99.90;;;-146.47;100.00;66290.13;5038233;28;20243;-78
2021/01/27 04:23:03;;;;;;;5.63;4.20;;;3.30;99.90;;;-146.47;100.00;66290.13;5037677;28;20207;-79
2021/01/27 04:25:49;;;;;;;5.03;4.00;;;3.20;99.90;;;-146.47;100.00;66290.13;5032074;28;20992;-80
2021/01/27 04:28:34;;;;;;;7.53;4.33;;;3.30;99.90;;;-146.47;100.00;66290.13;5037944;28;20227;-79
2021/01/27 04:31:19;;;;;;;5.50;4.33;;;3.30;99.90;;;-146.47;100.00;66290.13;5038043;28;20220;-79
2021/01/27 04:34:04;;;;;;;4.63;3.80;;;3.30;99.90;;;-146.47;100.00;66290.13;5035498;28;20287;-80
2021/01/27 04:36:50;;;;;;;12.53;4.60;;;3.20;99.90;;;-146.47;100.00;66290.13;5037269;28;20734;-79
2021/01/27 04:39:35;;;;;;;4.70;4.20;;;3.30;99.90;;;-146.47;100.00;66290.13;5035263;28;20254;-79
2021/01/27 04:42:27;;;;;;;5.47;4.67;;;3.30;99.90;;;-146.47;100.00;66290.13;5038552;28;20203;-81
2021/01/27 04:45:14;;;;;;;6.23;4.90;;;3.30;99.90;;;-146.47;100.00;66290.13;5040655;28;20208;-79
2021/01/27 04:48:09;;;;;;;7.30;4.87;;;3.30;99.90;;;-146.47;100.00;66290.13;5037749;28;20223;-80
2021/01/27 04:51:02;;;;;;;8.30;4.37;;;3.30;99.90;;;-146.47;100.00;66290.13;5037574;28;20212;-78
2021/01/27 04:54:09;;;;;;;6.40;3.97;;;3.30;99.90;;;-146.47;100.00;66290.13;5038971;28;20200;-80
2021/01/27 04:57:18;;;;;;;7.43;4.37;;;3.30;99.90;;;-146.47;100.00;66290.13;5037481;28;20768;-80
2021/01/27 05:00:20;;;;;;;5.67;4.80;;;3.30;99.90;;;-146.47;100.00;66290.13;5033712;28;20223;-79
2021/01/27 05:04:03;;;;;;;3.73;3.40;;;3.30;99.90;;;-146.47;100.00;66290.13;5036082;28;20263;-79
2021/01/27 05:06:56;;;;;;;6.60;4.53;;;3.20;99.90;;;-146.47;100.00;66290.13;5008762;28;20211;-80
2021/01/27 05:09:48;;;;;;;5.63;4.27;;;3.20;99.90;;;-146.47;100.00;66290.13;5049560;28;20258;-79
2021/01/27 05:12:46;;;;;;;7.50;4.60;;;3.30;99.90;;;-146.47;100.00;66290.13;5047918;28;20216;-79
2021/01/27 05:15:32;;;;;;;6.60;4.37;;;3.20;99.90;;;-146.47;100.00;66290.13;5037557;28;20223;-79
2021/01/27 05:18:18;;;;;;;4.73;3.90;;;3.20;99.90;;;-146.47;100.00;66290.13;5041992;28;20227;-80
2021/01/27 05:21:06;;;;;;;6.07;4.70;;;3.20;99.90;;;-146.47;100.00;66290.13;5042997;28;20251;-79
2021/01/27 05:23:51;;;;;;;8.33;5.03;;;3.30;99.90;;;-146.47;100.00;66290.13;5030018;28;20212;-79
2021/01/27 05:26:42;;;;;;;8.67;5.43;;;3.20;99.90;;;-146.47;100.00;66290.13;5040451;28;20228;-78
2021/01/27 05:29:34;;;;;;;8.57;5.07;;;3.30;99.90;;;-146.47;100.00;66290.13;5036117;28;20219;-79
2021/01/27 05:32:23;;;;;;;7.53;5.50;;;3.30;99.90;;;-146.47;100.00;66290.13;5038873;28;21928;-79
2021/01/27 05:35:25;;;;;;;5.93;4.30;;;3.30;99.90;;;-146.47;100.00;66290.13;5041780;28;20227;-79
2021/01/27 05:38:35;;;;;;;7.47;4.80;;;3.20;99.90;;;-146.47;100.00;66290.13;5037000;28;20766;-81
2021/01/27 05:41:27;;;;;;;9.20;5.87;;;3.20;99.90;;;-146.47;100.00;66290.13;5030563;28;20235;-79
2021/01/27 05:44:15;;;;;;;6.50;5.80;;;3.20;99.90;;;-146.47;100.00;66290.13;5038703;28;20227;-79
2021/01/27 05:47:35;;;;;;;7.83;6.30;;;3.20;99.90;;;-146.47;100.00;66290.13;5042120;28;20246;-78
2021/01/27 05:50:30;;;;;;;9.70;6.80;;;3.10;99.90;;;-146.47;100.00;66290.13;5032539;28;20284;-79
2021/01/27 05:53:19;;;;;;;9.93;5.73;;;3.10;99.90;;;-146.47;100.00;66290.13;5032365;28;20208;-79
2021/01/27 05:56:13;;;;;;;8.10;6.70;;;3.10;99.90;;;-146.47;100.00;66290.13;5036209;28;20235;-79
2021/01/27 05:59:03;;;;;;;6.93;5.87;;;3.10;99.90;;;-146.47;100.00;66290.13;5033814;28;20371;-80
2021/01/27 06:01:52;;;;;;;9.43;6.90;;;3.00;99.90;;;-146.47;100.00;66290.13;5028639;28;20299;-79
2021/01/27 06:04:39;;;;;;;7.30;5.67;;;3.00;99.90;;;-146.47;100.00;66290.13;5030921;28;20287;-79
2021/01/27 06:07:27;;;;;;;7.00;5.80;;;3.00;99.90;;;-146.47;100.00;66290.13;5033948;28;20251;-78
2021/01/27 06:10:34;;;;;;;9.17;6.90;;;3.00;99.90;;;-146.47;100.00;66290.13;5031079;28;20755;-79
2021/01/27 06:13:25;;;;;;;8.37;6.43;;;3.00;99.90;;;-146.47;100.00;66290.13;5032933;28;20219;-80
2021/01/27 06:16:21;;;;;;;9.33;7.17;;;3.00;99.90;;;-146.47;100.00;66290.13;5043581;28;20207;-78
2021/01/27 06:19:14;;;;;;;10.50;6.67;;;3.00;99.90;;;-146.47;100.00;66290.13;5042686;28;20227;-79
2021/01/27 06:22:32;;;;;;;7.53;5.67;;;2.90;99.90;;;-146.47;100.00;66290.13;5037856;28;20211;-79
2021/01/27 06:25:38;;;;;;;8.37;6.93;;;2.90;99.90;;;-146.47;100.00;66290.13;5039554;28;20203;-79
2021/01/27 06:29:10;;;;;;;10.77;6.80;;;2.90;99.90;;;-146.47;100.00;66290.13;5042477;28;20235;-79
2021/01/27 06:32:36;;;;;;;9.73;6.80;;;2.90;99.90;;;-146.47;100.00;66290.13;5042801;28;20257;-79
2021/01/27 06:35:39;;;;;;;7.83;6.00;;;2.90;99.90;;;-146.47;100.00;66290.13;5042308;28;20259;-79
2021/01/27 06:38:41;;;;;;;10.07;7.77;;;2.80;99.90;;;-146.47;100.00;66290.13;5043352;28;20227;-78
2021/01/27 06:41:54;;;;;;;9.90;7.23;;;2.80;99.90;;;-146.47;100.00;66290.13;5044397;28;20227;-77
2021/01/27 06:45:06;;;;;;;12.50;8.30;;;2.80;99.90;;;-146.47;100.00;66290.13;5042895;28;20211;-79
2021/01/27 06:48:16;;;;;;;11.27;9.33;;;2.80;99.90;;;-146.47;100.00;66290.13;5041518;28;20219;-79
2021/01/27 06:51:44;;;;;;;13.50;8.60;;;2.90;99.90;;;-146.47;100.00;66290.13;5039496;28;20207;-79
2021/01/27 06:55:17;;;;;;;11.57;8.30;;;2.80;99.90;;;-146.47;100.00;66290.13;5040421;28;20202;-79
2021/01/27 06:58:34;;;;;;;13.33;8.87;;;2.80;99.90;;;-146.47;100.00;66290.13;5007573;28;20270;-78
2021/01/27 07:01:46;;;;;;;9.10;7.30;;;2.80;99.90;;;-146.47;100.00;66290.13;5034586;28;20259;-78
2021/01/27 07:05:02;;;;;;;10.90;9.07;;;2.70;99.90;;;-146.47;100.00;66290.13;5037047;28;20211;-78
2021/01/27 07:08:09;;;;;;;9.90;7.90;;;2.80;99.90;;;-146.47;100.00;66290.13;5033691;28;20235;-79
2021/01/27 07:11:05;;;;;;;11.53;9.93;;;2.70;99.90;;;-146.47;100.00;66290.13;5030205;28;20210;-77
2021/01/27 07:14:45;;;;;;;11.53;9.53;;;2.70;99.90;;;-146.47;100.00;66290.13;5034403;28;20216;-79
2021/01/27 07:18:03;;;;;;;11.53;10.13;;;2.70;99.90;;;-146.47;100.00;66290.13;5035550;28;20254;-80
2021/01/27 07:20:58;;;;;;;13.37;11.97;;;2.70;99.90;;;-146.47;100.00;66290.13;5034434;28;20299;-79
2021/01/27 07:23:59;;;;;;;12.57;10.87;;;2.70;99.90;;;-146.47;100.00;66290.13;5036474;28;20207;-79
2021/01/27 07:26:54;;;;;;;13.37;9.67;;;2.70;99.90;;;-146.47;100.00;66290.13;5037344;28;20314;-79
2021/01/27 07:29:51;;;;;;;15.90;11.67;;;2.70;99.90;;;-146.47;100.00;66290.13;5037165;28;20200;-79
2021/01/27 07:32:45;;;;;;;11.73;9.60;;;2.70;99.90;;;-146.47;100.00;66290.13;5038847;28;20781;-79
2021/01/27 07:35:40;;;;;;;15.53;10.77;;;2.70;99.90;;;-146.47;100.00;66290.13;5036119;28;20196;-79
2021/01/27 07:38:32;;;;;;;14.27;9.97;;;2.70;99.90;;;-146.47;100.00;66290.13;5039162;28;20219;-79
2021/01/27 07:41:26;;;;;;;14.73;11.57;;;2.70;99.90;;;-146.47;100.00;66290.13;5028190;28;20212;-80
2021/01/27 07:44:17;;;;;;;13.83;11.83;;;2.70;99.90;;;-146.47;100.00;66290.13;5028486;28;20204;-79
2021/01/27 07:47:12;;;;;;;15.60;11.77;;;2.80;99.90;;;-146.47;100.00;66290.13;5023418;28;20199;-78
2021/01/27 07:49:59;;;;;;;15.13;12.23;;;2.80;99.90;;;-146.47;100.00;66290.13;5014909;28;20262;-79
2021/01/27 07:53:01;;;;;;;14.27;12.20;;;2.80;99.90;;;-146.47;100.00;66290.13;5016556;28;20330;-78
2021/01/27 07:56:02;;;;;;;16.20;12.87;;;2.80;99.90;;;-146.47;100.00;66290.13;5044741;28;20263;-77
2021/01/27 07:58:57;;;;;;;17.30;13.33;;;2.80;99.90;;;-146.47;100.00;66290.13;5044279;28;20712;-80
2021/01/27 08:01:48;;;;;;;16.97;13.40;;;2.80;99.90;;;-146.47;100.00;66290.13;5039604;28;20215;-79
2021/01/27 08:04:41;;;;;;;18.93;14.20;;;2.90;99.90;;;-146.47;100.00;66290.13;5027198;28;20203;-79
2021/01/27 08:07:32;;;;;;;16.80;12.03;;;2.90;99.90;;;-146.47;100.00;66290.13;5041510;28;20199;-79
2021/01/27 08:10:26;;;;;;;16.40;13.13;;;2.90;99.90;;;-146.47;100.00;66290.13;5031782;28;20211;-79
2021/01/27 08:13:35;;;;;;;17.30;13.13;;;2.90;99.90;;;-146.47;100.00;66290.13;5029282;28;20212;-80
2021/01/27 08:16:36;;;;;;;16.47;12.37;;;3.00;99.90;;;-146.47;100.00;66290.13;5035789;28;20299;-79
2021/01/27 08:19:29;;;;;;;15.80;11.67;;;3.00;99.90;;;-146.47;100.00;66290.13;5037460;28;20983;-79
2021/01/27 08:22:50;;;;;;;16.63;13.27;;;3.00;99.90;;;-146.47;100.00;66290.13;5033380;28;20234;-79
2021/01/27 08:25:51;;;;;;;14.10;10.13;;;3.00;99.90;;;-146.47;100.00;66290.13;5027406;28;20223;-78
2021/01/27 08:28:48;;;;;;;18.07;12.73;;;3.00;99.90;;;-146.47;100.00;66290.13;5035252;28;20637;-80
2021/01/27 08:31:34;;;;;;;16.73;13.73;;;3.00;99.90;;;-146.47;100.00;66290.13;5037896;28;20250;-77
2021/01/27 08:34:43;;;;;;;15.03;11.23;;;3.00;99.90;;;-146.47;100.00;66290.13;5039300;28;20215;-79
2021/01/27 08:37:31;;;;;;;16.00;12.77;;;3.10;99.90;;;-146.47;100.00;66290.13;5036111;28;20207;-80
2021/01/27 08:40:31;;;;;;;17.10;12.50;;;3.10;99.90;;;-146.47;100.00;66290.13;5034721;28;20251;-79
2021/01/27 08:43:17;;;;;;;17.20;12.27;;;3.10;99.90;;;-146.47;100.00;66290.13;5029354;28;20583;-80
2021/01/27 08:46:33;;;;;;;15.60;11.93;;;3.20;99.90;;;-146.47;100.00;66290.13;5037746;28;20195;-80
2021/01/27 08:49:51;;;;;;;17.33;12.03;;;3.20;99.90;;;-146.47;100.00;66290.13;5034481;28;20235;-80
2021/01/27 08:52:40;;;;;;;13.83;9.27;;;3.20;99.90;;;-146.47;100.00;66290.13;5039626;28;20226;-80
2021/01/27 08:55:56;;;;;;;15.40;12.30;;;3.20;99.90;;;-146.47;100.00;66290.13;5035968;28;20208;-79
2021/01/27 08:58:48;;;;;;;14.70;10.57;;;3.30;99.90;;;-146.47;100.00;66290.13;5033254;28;20789;-79
2021/01/27 09:01:53;;;;;;;13.17;9.83;;;3.30;99.90;;;-146.47;100.00;66290.13;5033729;28;20231;-79
2021/01/27 09:04:38;;;;;;;11.77;8.00;;;3.30;99.90;;;-146.47;100.00;66290.13;5042278;28;20210;-80
2021/01/27 09:07:25;;;;;;;13.40;7.80;;;3.40;99.90;;;-146.47;100.00;66290.13;5034440;28;20230;-81
2021/01/27 09:10:11;;;;;;;12.00;9.13;;;3.30;99.90;;;-146.47;100.00;66290.13;5041344;28;20211;-80
2021/01/27 09:12:56;;;;;;;13.27;10.13;;;3.40;99.90;;;-146.47;100.00;66290.13;5044464;28;20212;-79
2021/01/27 09:15:41;;;;;;;16.97;11.10;;;3.40;99.90;;;-146.47;100.00;66290.13;5042948;28;20211;-80
2021/01/27 09:18:27;;;;;;;10.60;8.13;;;3.40;99.90;;;-146.47;100.00;66290.13;5041639;28;20262;-80
2021/01/27 09:21:17;;;;;;;13.70;10.43;;;3.50;99.90;;;-146.47;100.00;66290.13;5035705;28;20584;-80
2021/01/27 09:24:08;;;;;;;13.87;9.30;;;3.50;99.90;;;-146.47;100.00;66290.13;5038989;28;20203;-79
2021/01/27 09:26:56;;;;;;;12.40;9.23;;;3.50;99.90;;;-146.47;100.00;66290.13;5042369;28;20212;-78
2021/01/27 09:29:42;;;;;;;13.17;9.77;;;3.60;99.90;;;-146.47;100.00;66290.13;5043647;28;20230;-78
2021/01/27 09:32:31;;;;;;;12.73;9.63;;;3.60;99.90;;;-146.47;100.00;66290.13;5039820;28;20207;-79
2021/01/27 09:35:22;;;;;;;11.63;9.00;;;3.60;99.90;;;-146.47;100.00;66290.13;5036979;28;20235;-80
2021/01/27 09:38:13;;;;;;;12.63;8.97;;;3.60;99.90;;;-146.47;100.00;66290.13;5032010;28;20587;-80
2021/01/27 09:41:06;;;;;;;14.17;10.17;;;3.70;99.90;;;-146.47;100.00;66290.13;5036154;28;20643;-80
2021/01/27 09:43:52;;;;;;;13.53;9.67;;;3.70;99.90;;;-146.47;100.00;66290.13;5037126;28;20199;-80
2021/01/27 09:46:39;;;;;;;13.17;9.80;;;3.70;99.90;;;-146.47;100.00;66290.13;5037340;28;20211;-79
2021/01/27 09:49:25;;;;;;;13.60;9.43;;;3.80;99.90;;;-146.47;100.00;66290.13;5033308;28;20366;-79
2021/01/27 09:52:14;;;;;;;14.67;10.07;;;3.80;99.90;;;-146.47;100.00;66290.13;5033674;28;20219;-80
2021/01/27 09:55:08;;;;;;;15.20;11.00;;;3.80;99.90;;;-146.47;100.00;66290.13;5036263;28;20231;-79
2021/01/27 09:57:55;;;;;;;13.77;9.63;;;3.90;99.90;;;-146.47;100.00;66290.13;5038770;28;20242;-79
2021/01/27 10:00:41;;;;;;;14.33;9.70;;;3.90;99.90;;;-146.47;100.00;66290.13;5035383;28;20223;-80
2021/01/27 10:03:30;;;;;;;12.93;8.90;;;3.90;99.90;;;-146.47;100.00;66290.13;5037470;28;20239;-78
2021/01/27 10:06:37;;;;;;;15.50;10.40;;;3.90;99.90;;;-146.47;100.00;66290.13;5028748;28;20675;-79
2021/01/27 10:09:29;;;;;;;14.00;9.17;;;4.00;99.90;;;-146.47;100.00;66290.13;5034527;28;20561;-78
2021/01/27 10:12:23;;;;;;;15.47;10.70;;;4.00;99.90;;;-146.47;100.00;66290.13;5032164;28;20250;-78
2021/01/27 10:15:24;;;;;;;17.77;11.77;;;4.00;99.90;;;-146.47;100.00;66290.13;5035655;28;20329;-79
2021/01/27 10:18:18;;;;;;;15.73;11.80;;;4.10;99.90;;;-146.47;100.00;66290.13;5039225;28;20280;-79
2021/01/27 10:21:07;;;;;;;15.50;11.37;;;4.10;99.90;;;-146.47;100.00;66290.13;5037373;28;20230;-80
2021/01/27 10:23:52;;;;;;;16.87;11.33;;;4.10;99.90;;;-146.47;100.00;66290.13;5039933;28;20258;-79
2021/01/27 10:26:40;;;;;;;15.63;11.90;;;4.10;99.90;;;-146.47;100.00;66290.13;5041900;28;20227;-79
2021/01/27 10:29:35;;;;;;;17.13;11.40;;;4.20;99.90;;;-146.47;100.00;66290.13;5035834;28;20223;-79
2021/01/27 10:32:39;;;;;;;18.07;13.73;;;4.20;99.90;;;-146.47;100.00;66290.13;5041006;28;20223;-79
2021/01/27 10:35:32;;;;;;;16.67;11.97;;;4.30;99.90;;;-146.47;100.00;66290.13;5037593;28;20231;-80
2021/01/27 10:38:23;;;;;;;21.33;14.20;;;4.30;99.90;;;-146.47;100.00;66290.13;5033250;28;20242;-79
2021/01/27 10:41:13;;;;;;;18.00;12.17;;;4.30;99.90;;;-146.47;100.00;66290.13;5041608;28;20308;-79
2021/01/27 10:44:27;;;;;;;21.00;13.83;;;4.30;99.90;;;-146.47;100.00;66290.13;5037716;28;20254;-79
2021/01/27 10:47:30;;;;;;;21.20;14.60;;;4.40;99.90;;;-146.47;100.00;66290.13;5037561;28;20208;-79
2021/01/27 10:50:15;;;;;;;18.60;12.57;;;4.40;99.90;;;-146.47;100.00;66290.13;5040532;28;20253;-79
2021/01/27 10:53:03;;;;;;;19.63;13.87;;;4.50;99.90;;;-146.47;100.00;66290.13;5040773;28;20254;-77
2021/01/27 10:55:56;;;;;;;18.33;13.20;;;4.50;99.90;;;-146.47;100.00;66290.13;5038459;28;20231;-78
2021/01/27 10:58:42;;;;;;;18.83;13.23;;;4.50;99.90;;;-146.47;100.00;66290.13;5041040;28;20246;-79
2021/01/27 11:01:27;;;;;;;18.00;12.00;;;4.60;99.90;;;-146.47;100.00;66290.13;5044544;28;20299;-79
2021/01/27 11:04:13;;;;;;;19.63;13.80;;;4.60;99.90;;;-146.47;100.00;66290.13;5038324;28;20207;-77
2021/01/27 11:06:58;;;;;;;19.53;12.67;;;4.60;99.90;;;-146.47;100.00;66290.13;5040831;28;20288;-78
2021/01/27 11:09:46;;;;;;;18.37;12.67;;;4.60;99.90;;;-146.47;100.00;66290.13;5040461;28;20232;-79
2021/01/27 11:12:33;;;;;;;20.13;14.63;;;4.60;99.90;;;-146.47;100.00;66290.13;5041323;28;20198;-80
2021/01/27 11:15:19;;;;;;;20.50;14.60;;;4.70;99.90;;;-146.47;100.00;66290.13;5045350;28;20196;-79
2021/01/27 11:18:04;;;;;;;19.87;13.77;;;4.70;99.90;;;-146.47;100.00;66290.13;5045854;28;20227;-79
2021/01/27 11:20:51;;;;;;;20.30;14.20;;;4.80;99.90;;;-146.47;100.00;66290.13;5044932;28;20246;-79
2021/01/27 11:23:36;;;;;;;20.73;14.87;;;4.80;99.90;;;-146.47;100.00;66290.13;5035786;28;20231;-78
2021/01/27 11:26:21;;;;;;;20.23;13.43;;;4.80;99.90;;;-146.47;100.00;66290.13;5042428;28;20219;-77
2021/01/27 11:29:06;;;;;;;18.73;12.13;;;4.80;99.90;;;-146.47;100.00;66290.13;5035936;28;20227;-78
2021/01/27 11:31:51;;;;;;;22.10;15.13;;;4.90;99.90;;;-146.47;100.00;66290.13;5043386;28;20752;-78
2021/01/27 11:34:37;;;;;;;23.23;16.20;;;4.90;99.90;;;-146.47;100.00;66290.13;5040516;28;20198;-78
2021/01/27 11:37:22;;;;;;;23.57;16.33;;;4.90;99.90;;;-146.47;100.00;66290.13;5034824;28;20286;-78
2021/01/27 11:40:11;;;;;;;27.13;17.50;;;5.00;99.90;;;-146.47;100.00;66290.13;5042981;28;20579;-78
2021/01/27 11:42:55;;;;;;;22.47;15.10;;;5.00;99.90;;;-146.47;100.00;66290.13;5042226;28;20235;-76
2021/01/27 11:45:44;;;;;;;23.43;15.67;;;5.00;99.90;;;-146.47;100.00;66290.13;5043786;28;20287;-78
2021/01/27 11:48:29;;;;;;;28.83;17.83;;;5.00;99.90;;;-146.47;100.00;66290.13;5039358;28;20278;-78